createdAt,value
2023-08-30T00:00:11.378Z,26.20
2023-08-30T00:02:40.217Z,26.16
2023-08-30T00:05:10.185Z,26.13
2023-08-30T00:07:38.726Z,26.07
2023-08-30T00:10:11.307Z,26.00
2023-08-30T00:12:41.115Z,25.94
2023-08-30T00:15:11.030Z,25.90
2023-08-30T00:17:40.011Z,25.89
2023-08-30T00:20:10.197Z,25.85
2023-08-30T00:22:40.453Z,25.83
2023-08-30T00:25:10.111Z,25.86
2023-08-30T00:27:39.621Z,25.87
2023-08-30T00:30:10.431Z,25.88
2023-08-30T00:32:39.263Z,25.87
2023-08-30T00:35:09.411Z,25.82
2023-08-30T00:37:38.275Z,25.78
2023-08-30T00:40:08.952Z,25.73
2023-08-30T00:42:38.581Z,25.67
2023-08-30T00:45:08.957Z,25.65
2023-08-30T00:47:38.097Z,25.64
2023-08-30T00:50:29.315Z,25.63
2023-08-30T00:52:58.921Z,25.63
2023-08-30T00:55:28.134Z,25.59
2023-08-30T00:57:57.095Z,25.57
2023-08-30T01:00:26.360Z,25.53
2023-08-30T01:02:56.932Z,25.51
2023-08-30T01:05:25.921Z,25.52
2023-08-30T01:07:55.015Z,25.51
2023-08-30T01:10:31.756Z,25.48
2023-08-30T01:13:06.716Z,25.45
2023-08-30T01:15:35.820Z,25.44
2023-08-30T01:18:05.968Z,25.39
2023-08-30T01:20:39.323Z,25.37
2023-08-30T01:23:27.610Z,25.32
2023-08-30T01:26:17.867Z,25.32
2023-08-30T01:28:47.036Z,25.28
2023-08-30T01:31:16.940Z,25.29
2023-08-30T01:33:46.991Z,25.29
2023-08-30T01:36:16.201Z,25.25
2023-08-30T01:38:45.512Z,25.25
2023-08-30T01:41:14.271Z,25.23
2023-08-30T01:43:43.192Z,25.21
2023-08-30T01:46:13.238Z,25.20
2023-08-30T01:48:42.466Z,25.19
2023-08-30T01:51:12.089Z,25.18
2023-08-30T01:53:41.723Z,25.18
2023-08-30T01:56:10.202Z,25.18
2023-08-30T01:58:38.937Z,25.16
2023-08-30T02:01:09.941Z,25.18
2023-08-30T02:03:39.893Z,25.15
2023-08-30T02:06:23.519Z,25.13
2023-08-30T02:09:06.851Z,25.14
2023-08-30T02:11:38.498Z,25.14
2023-08-30T02:14:08.702Z,25.12
2023-08-30T02:16:39.190Z,25.11
2023-08-30T02:19:08.456Z,25.08
2023-08-30T02:21:38.459Z,25.06
2023-08-30T02:24:09.709Z,25.05
2023-08-30T02:26:38.698Z,25.06
2023-08-30T02:29:10.662Z,25.09
2023-08-30T02:31:40.353Z,25.07
2023-08-30T02:34:09.565Z,25.06
2023-08-30T02:36:39.888Z,25.07
2023-08-30T02:39:09.101Z,25.07
2023-08-30T02:41:38.423Z,25.06
2023-08-30T02:44:09.164Z,25.08
2023-08-30T02:46:40.291Z,25.09
2023-08-30T02:49:11.678Z,25.10
2023-08-30T02:51:43.524Z,25.12
2023-08-30T02:54:14.420Z,25.14
2023-08-30T02:56:44.831Z,25.11
2023-08-30T02:59:14.559Z,25.07
2023-08-30T03:01:44.100Z,25.06
2023-08-30T03:04:13.737Z,25.04
2023-08-30T03:06:43.710Z,25.05
2023-08-30T03:09:14.356Z,25.06
2023-08-30T03:11:45.466Z,25.05
2023-08-30T03:14:16.571Z,25.02
2023-08-30T03:16:47.760Z,25.03
2023-08-30T03:19:18.953Z,25.00
2023-08-30T03:21:48.786Z,24.99
2023-08-30T03:24:18.757Z,24.94
2023-08-30T03:26:48.505Z,24.90
2023-08-30T03:29:18.320Z,24.91
2023-08-30T03:31:48.140Z,24.95
2023-08-30T03:34:17.268Z,24.96
2023-08-30T03:36:49.790Z,24.99
2023-08-30T03:39:18.642Z,24.99
2023-08-30T03:41:48.370Z,25.02
2023-08-30T03:44:18.256Z,25.04
2023-08-30T03:46:50.180Z,25.04
2023-08-30T03:49:19.447Z,25.06
2023-08-30T03:51:49.311Z,25.06
2023-08-30T03:54:18.886Z,25.08
2023-08-30T03:56:47.886Z,25.09
2023-08-30T03:59:18.621Z,25.06
2023-08-30T04:01:48.444Z,25.04
2023-08-30T04:04:18.855Z,25.03
2023-08-30T04:06:47.729Z,25.03
2023-08-30T04:09:18.302Z,25.06
2023-08-30T04:11:46.856Z,25.08
2023-08-30T04:14:16.016Z,25.11
2023-08-30T04:16:45.590Z,25.16
2023-08-30T04:19:15.480Z,25.18
2023-08-30T04:21:44.630Z,25.21
2023-08-30T04:24:15.514Z,25.24
2023-08-30T04:26:48.558Z,25.27
2023-08-30T04:29:17.847Z,25.29
2023-08-30T04:31:47.747Z,25.34
2023-08-30T04:34:17.828Z,25.38
2023-08-30T04:36:47.990Z,25.41
2023-08-30T04:39:18.427Z,25.43
2023-08-30T04:41:48.098Z,25.42
2023-08-30T04:44:19.894Z,25.43
2023-08-30T04:46:50.197Z,25.44
2023-08-30T04:49:20.967Z,25.46
2023-08-30T04:51:50.717Z,25.49
2023-08-30T04:54:20.173Z,25.52
2023-08-30T04:56:50.198Z,25.53
2023-08-30T04:59:20.711Z,25.56
2023-08-30T05:01:52.853Z,25.59
2023-08-30T05:04:23.818Z,25.62
2023-08-30T05:06:54.138Z,25.64
2023-08-30T05:09:25.947Z,25.68
2023-08-30T05:11:56.600Z,25.73
2023-08-30T05:14:26.012Z,25.78
2023-08-30T05:16:55.072Z,25.83
2023-08-30T05:19:25.422Z,25.87
2023-08-30T05:21:56.472Z,25.94
2023-08-30T05:24:28.528Z,26.02
2023-08-30T05:26:57.478Z,26.06
2023-08-30T05:29:28.408Z,26.15
2023-08-30T05:31:58.737Z,26.25
2023-08-30T05:34:29.952Z,26.32
2023-08-30T05:37:20.657Z,26.43
2023-08-30T05:39:54.970Z,26.54
2023-08-30T05:42:24.332Z,26.67
2023-08-30T05:44:54.423Z,26.77
2023-08-30T05:47:24.179Z,26.87
2023-08-30T05:49:53.159Z,26.95
2023-08-30T05:52:23.654Z,27.06
2023-08-30T05:54:53.144Z,27.15
2023-08-30T05:57:25.672Z,27.24
2023-08-30T05:59:58.290Z,27.35
2023-08-30T06:02:28.981Z,27.43
2023-08-30T06:04:59.375Z,27.49
2023-08-30T06:07:29.150Z,27.56
2023-08-30T06:09:59.673Z,27.59
2023-08-30T06:12:30.540Z,27.63
2023-08-30T06:14:59.875Z,27.70
2023-08-30T06:17:29.005Z,27.72
2023-08-30T06:19:59.331Z,27.72
2023-08-30T06:22:28.944Z,27.73
2023-08-30T06:24:58.506Z,27.77
2023-08-30T06:27:27.866Z,27.77
2023-08-30T06:29:58.886Z,27.74
2023-08-30T06:32:28.239Z,27.70
2023-08-30T06:35:00.656Z,27.64
2023-08-30T06:37:31.917Z,27.60
2023-08-30T06:40:01.465Z,27.59
2023-08-30T06:42:30.932Z,27.60
2023-08-30T06:45:00.758Z,27.62
2023-08-30T06:47:31.245Z,27.62
2023-08-30T06:50:01.898Z,27.61
2023-08-30T06:52:32.157Z,27.63
2023-08-30T06:55:03.157Z,27.68
2023-08-30T06:57:33.906Z,27.73
2023-08-30T07:00:05.945Z,27.76
2023-08-30T07:02:39.059Z,27.81
2023-08-30T07:05:10.083Z,27.87
2023-08-30T07:07:39.487Z,27.92
2023-08-30T07:10:10.036Z,27.98
2023-08-30T07:12:41.041Z,28.07
2023-08-30T07:15:12.230Z,28.20
2023-08-30T07:17:52.853Z,28.20
2023-08-30T07:20:14.653Z,28.26
2023-08-30T07:22:44.610Z,28.32
2023-08-30T07:25:15.462Z,28.40
2023-08-30T07:27:45.181Z,28.46
2023-08-30T07:30:15.413Z,28.53
2023-08-30T07:32:44.909Z,28.58
2023-08-30T07:35:15.551Z,28.64
2023-08-30T07:37:49.265Z,28.68
2023-08-30T07:40:22.169Z,28.73
2023-08-30T07:42:51.568Z,28.79
2023-08-30T07:45:21.250Z,28.88
2023-08-30T07:47:51.329Z,28.97
2023-08-30T07:50:20.607Z,29.06
2023-08-30T07:52:49.509Z,29.18
2023-08-30T07:55:18.678Z,29.27
2023-08-30T07:57:48.478Z,29.33
2023-08-30T08:00:18.007Z,29.41
2023-08-30T08:02:47.881Z,29.53
2023-08-30T08:05:18.026Z,29.65
2023-08-30T08:07:46.967Z,29.77
2023-08-30T08:10:15.390Z,29.88
2023-08-30T08:12:44.385Z,30.02
2023-08-30T08:15:13.564Z,30.14
2023-08-30T08:17:42.684Z,30.27
2023-08-30T08:20:12.508Z,30.46
2023-08-30T08:22:41.728Z,30.76
2023-08-30T08:25:11.236Z,31.01
2023-08-30T08:27:40.356Z,31.13
2023-08-30T08:30:10.941Z,31.17
2023-08-30T08:32:39.959Z,31.23
2023-08-30T08:35:09.472Z,31.26
2023-08-30T08:37:38.589Z,31.30
2023-08-30T08:40:12.639Z,31.32
2023-08-30T08:42:41.720Z,31.33
2023-08-30T08:45:14.741Z,31.32
2023-08-30T08:47:43.540Z,31.33
2023-08-30T08:50:13.014Z,31.33
2023-08-30T08:52:54.887Z,31.35
2023-08-30T08:55:13.502Z,31.40
2023-08-30T08:57:42.608Z,31.45
2023-08-30T09:00:13.028Z,31.48
2023-08-30T09:02:42.381Z,31.52
2023-08-30T09:05:12.304Z,31.52
2023-08-30T09:07:40.890Z,31.51
2023-08-30T09:10:10.447Z,31.52
2023-08-30T09:12:39.309Z,31.54
2023-08-30T09:15:09.607Z,31.57
2023-08-30T09:17:40.196Z,31.67
2023-08-30T09:20:13.388Z,31.79
2023-08-30T09:22:44.488Z,31.94
2023-08-30T09:25:17.316Z,32.04
2023-08-30T09:27:47.001Z,32.11
2023-08-30T09:30:16.392Z,32.23
2023-08-30T09:32:46.014Z,32.32
2023-08-30T09:35:15.736Z,32.40
2023-08-30T09:37:47.215Z,32.49
2023-08-30T09:40:20.398Z,32.56
2023-08-30T09:43:02.653Z,32.54
2023-08-30T09:45:23.670Z,32.54
2023-08-30T09:47:53.586Z,32.46
2023-08-30T09:50:23.820Z,32.37
2023-08-30T09:52:53.748Z,32.31
2023-08-30T09:55:23.719Z,32.27
2023-08-30T09:57:52.719Z,32.26
2023-08-30T10:00:22.663Z,32.23
2023-08-30T10:03:16.610Z,32.21
2023-08-30T10:05:23.397Z,32.22
2023-08-30T10:07:53.225Z,32.26
2023-08-30T10:10:22.060Z,32.26
2023-08-30T10:12:59.967Z,32.28
2023-08-30T10:15:23.037Z,32.32
2023-08-30T10:17:52.337Z,32.32
2023-08-30T10:20:21.370Z,32.28
2023-08-30T10:22:50.945Z,32.26
2023-08-30T10:25:26.426Z,32.26
2023-08-30T10:27:55.298Z,32.29
2023-08-30T10:30:24.308Z,32.32
2023-08-30T10:32:53.526Z,32.35
2023-08-30T10:35:22.708Z,32.40
2023-08-30T10:37:59.938Z,32.38
2023-08-30T10:40:28.412Z,32.32
2023-08-30T10:43:05.451Z,32.31
2023-08-30T10:45:34.424Z,32.32
2023-08-30T10:48:05.630Z,32.34
2023-08-30T10:50:35.313Z,32.32
2023-08-30T10:53:06.354Z,32.34
2023-08-30T10:55:35.838Z,32.35
2023-08-30T10:58:05.824Z,32.35
2023-08-30T11:00:36.669Z,32.33
2023-08-30T11:03:06.261Z,32.32
2023-08-30T11:05:35.691Z,32.33
2023-08-30T11:08:06.458Z,32.36
2023-08-30T11:10:36.484Z,32.37
2023-08-30T11:13:05.295Z,32.38
2023-08-30T11:15:35.071Z,32.39
2023-08-30T11:18:07.700Z,32.38
2023-08-30T11:20:37.385Z,32.33
2023-08-30T11:23:05.818Z,32.32
2023-08-30T11:25:34.266Z,32.34
2023-08-30T11:28:06.383Z,32.35
2023-08-30T11:30:34.903Z,32.36
2023-08-30T11:33:04.778Z,32.40
2023-08-30T11:35:34.017Z,32.45
2023-08-30T11:38:02.917Z,32.46
2023-08-30T11:40:34.491Z,32.48
2023-08-30T11:43:04.695Z,32.49
2023-08-30T11:45:37.413Z,32.47
2023-08-30T11:48:07.431Z,32.54
2023-08-30T11:50:43.551Z,32.50
2023-08-30T11:53:07.398Z,32.41
2023-08-30T11:55:36.125Z,32.36
2023-08-30T11:58:05.319Z,32.36
2023-08-30T12:00:35.372Z,32.34
2023-08-30T12:03:06.433Z,32.32
2023-08-30T12:05:36.160Z,32.28
2023-08-30T12:08:06.186Z,32.22
2023-08-30T12:10:35.156Z,32.19
2023-08-30T12:13:04.890Z,32.15
2023-08-30T12:15:35.214Z,32.15
2023-08-30T12:18:10.839Z,32.11
2023-08-30T12:20:40.290Z,32.08
2023-08-30T12:23:13.037Z,32.08
2023-08-30T12:25:41.659Z,32.09
2023-08-30T12:28:10.877Z,32.09
2023-08-30T12:30:39.554Z,32.11
2023-08-30T12:33:09.422Z,32.09
2023-08-30T12:35:39.074Z,32.05
2023-08-30T12:38:07.820Z,32.03
2023-08-30T12:40:37.417Z,32.05
2023-08-30T12:43:07.135Z,32.10
2023-08-30T12:45:37.267Z,32.13
2023-08-30T12:48:07.032Z,32.16
2023-08-30T12:50:36.920Z,32.21
2023-08-30T12:53:07.240Z,32.28
2023-08-30T12:55:37.096Z,32.34
2023-08-30T12:58:06.327Z,32.37
2023-08-30T13:00:34.960Z,32.35
2023-08-30T13:03:04.435Z,32.37
2023-08-30T13:05:34.017Z,32.31
2023-08-30T13:08:06.268Z,32.24
2023-08-30T13:10:35.314Z,32.24
2023-08-30T13:13:04.361Z,32.28
2023-08-30T13:15:33.198Z,32.28
2023-08-30T13:18:02.081Z,32.30
2023-08-30T13:20:31.314Z,32.30
2023-08-30T13:23:00.128Z,32.28
2023-08-30T13:25:29.147Z,32.29
2023-08-30T13:27:58.635Z,32.33
2023-08-30T13:30:27.441Z,32.35
2023-08-30T13:32:56.176Z,32.36
2023-08-30T13:35:25.633Z,32.35
2023-08-30T13:37:55.273Z,32.33
2023-08-30T13:40:24.042Z,32.33
2023-08-30T13:42:52.842Z,32.31
2023-08-30T13:45:21.744Z,32.26
2023-08-30T13:47:52.864Z,32.19
2023-08-30T13:50:22.606Z,32.16
2023-08-30T13:52:53.344Z,32.15
2023-08-30T13:55:22.793Z,32.14
2023-08-30T13:57:52.474Z,32.14
2023-08-30T14:00:22.569Z,32.12
2023-08-30T14:02:52.577Z,32.10
2023-08-30T14:05:21.392Z,32.10
2023-08-30T14:07:50.562Z,32.07
2023-08-30T14:10:21.302Z,32.03
2023-08-30T14:12:50.827Z,32.02
2023-08-30T14:15:20.012Z,31.98
2023-08-30T14:17:49.361Z,31.96
2023-08-30T14:20:18.573Z,31.92
2023-08-30T14:22:47.492Z,31.91
2023-08-30T14:25:16.320Z,31.89
2023-08-30T14:27:45.278Z,31.88
2023-08-30T14:30:14.662Z,31.83
2023-08-30T14:32:43.631Z,31.77
2023-08-30T14:35:12.177Z,31.73
2023-08-30T14:37:42.058Z,31.68
2023-08-30T14:40:11.877Z,31.62
2023-08-30T14:42:44.077Z,31.54
2023-08-30T14:45:15.034Z,31.43
2023-08-30T14:47:45.545Z,31.37
2023-08-30T14:50:14.564Z,31.30
2023-08-30T14:52:43.518Z,31.27
2023-08-30T14:55:14.218Z,31.20
2023-08-30T14:57:42.923Z,31.16
2023-08-30T15:00:13.158Z,31.14
2023-08-30T15:02:42.178Z,31.14
2023-08-30T15:05:11.376Z,31.13
2023-08-30T15:07:39.881Z,31.09
2023-08-30T15:10:09.887Z,31.02
2023-08-30T15:12:41.641Z,30.92
2023-08-30T15:15:11.624Z,30.85
2023-08-30T15:17:41.294Z,30.83
2023-08-30T15:20:10.421Z,30.76
2023-08-30T15:22:39.212Z,30.69
2023-08-30T15:25:08.398Z,30.61
2023-08-30T15:27:36.998Z,30.53
2023-08-30T15:30:07.805Z,30.48
2023-08-30T15:32:36.556Z,30.44
2023-08-30T15:35:07.039Z,30.40
2023-08-30T15:37:35.744Z,30.35
2023-08-30T15:40:09.942Z,30.31
2023-08-30T15:42:38.922Z,30.26
2023-08-30T15:45:09.107Z,30.21
2023-08-30T15:47:39.092Z,30.17
2023-08-30T15:50:09.615Z,30.13
2023-08-30T15:52:38.645Z,30.07
2023-08-30T15:55:09.128Z,30.03
2023-08-30T15:57:38.285Z,29.97
2023-08-30T16:00:09.013Z,29.94
2023-08-30T16:02:38.231Z,29.86
2023-08-30T16:05:07.603Z,29.81
2023-08-30T16:07:36.071Z,29.76
2023-08-30T16:10:06.387Z,29.70
2023-08-30T16:12:35.317Z,29.63
2023-08-30T16:15:05.175Z,29.61
2023-08-30T16:17:34.448Z,29.56
2023-08-30T16:20:05.509Z,29.52
2023-08-30T16:22:35.220Z,29.48
2023-08-30T16:25:06.566Z,29.45
2023-08-30T16:27:35.986Z,29.41
2023-08-30T16:30:06.550Z,29.37
2023-08-30T16:32:35.709Z,29.32
2023-08-30T16:35:05.400Z,29.28
2023-08-30T16:37:34.200Z,29.25
2023-08-30T16:40:04.714Z,29.22
2023-08-30T16:42:34.319Z,29.20
2023-08-30T16:45:03.783Z,29.18
2023-08-30T16:47:47.183Z,29.13
2023-08-30T16:50:09.188Z,29.10
2023-08-30T16:52:38.820Z,29.06
2023-08-30T16:55:09.880Z,28.99
2023-08-30T16:57:40.066Z,28.91
2023-08-30T17:00:10.875Z,28.86
2023-08-30T17:02:42.238Z,28.80
2023-08-30T17:05:12.360Z,28.75
2023-08-30T17:07:41.547Z,28.71
2023-08-30T17:10:12.067Z,28.63
2023-08-30T17:12:42.320Z,28.63
2023-08-30T17:15:12.780Z,28.56
2023-08-30T17:17:42.050Z,28.45
2023-08-30T17:20:12.220Z,28.45
2023-08-30T17:22:43.362Z,28.37
2023-08-30T17:25:12.332Z,28.37
2023-08-30T17:27:43.609Z,28.34
2023-08-30T17:30:14.968Z,28.28
2023-08-30T17:32:45.168Z,28.25
2023-08-30T17:35:14.291Z,28.19
2023-08-30T17:37:46.038Z,28.17
2023-08-30T17:40:16.244Z,28.13
2023-08-30T17:42:45.477Z,28.07
2023-08-30T17:45:15.948Z,27.91
2023-08-30T17:47:47.734Z,27.91
2023-08-30T17:50:17.471Z,27.78
2023-08-30T17:52:47.128Z,27.70
2023-08-30T17:55:17.491Z,27.59
2023-08-30T17:57:46.387Z,27.45
2023-08-30T18:00:16.984Z,27.37
2023-08-30T18:02:49.910Z,27.32
2023-08-30T18:05:20.365Z,27.27
2023-08-30T18:07:53.554Z,27.22
2023-08-30T18:10:23.868Z,27.16
2023-08-30T18:12:53.157Z,27.14
2023-08-30T18:15:22.274Z,27.10
2023-08-30T18:17:54.554Z,27.05
2023-08-30T18:20:25.918Z,27.01
2023-08-30T18:22:55.416Z,26.95
2023-08-30T18:25:25.492Z,26.89
2023-08-30T18:27:54.590Z,26.77
2023-08-30T18:30:24.973Z,26.62
2023-08-30T18:32:55.265Z,26.42
2023-08-30T18:35:25.807Z,26.28
2023-08-30T18:37:55.766Z,26.13
2023-08-30T18:40:25.499Z,26.06
2023-08-30T18:42:55.315Z,26.00
2023-08-30T18:45:25.856Z,25.92
2023-08-30T18:47:56.491Z,25.85
2023-08-30T18:50:26.304Z,25.78
2023-08-30T18:52:55.151Z,25.73
2023-08-30T18:55:23.959Z,25.71
2023-08-30T18:57:54.723Z,25.66
2023-08-30T19:00:24.411Z,25.62
2023-08-30T19:02:54.308Z,25.55
2023-08-30T19:05:23.952Z,25.48
2023-08-30T19:07:54.419Z,25.42
2023-08-30T19:10:24.300Z,25.39
2023-08-30T19:12:53.651Z,25.34
2023-08-30T19:15:23.939Z,25.28
2023-08-30T19:17:54.086Z,25.23
2023-08-30T19:20:23.025Z,25.20
2023-08-30T19:22:53.172Z,25.18
2023-08-30T19:25:21.953Z,25.12
2023-08-30T19:27:51.263Z,25.05
2023-08-30T19:30:22.602Z,24.99
2023-08-30T19:32:52.361Z,24.95
2023-08-30T19:35:21.946Z,24.89
2023-08-30T19:37:53.235Z,24.83
2023-08-30T19:40:23.262Z,24.80
2023-08-30T19:42:53.298Z,24.80
2023-08-30T19:45:22.389Z,24.77
2023-08-30T19:47:51.900Z,24.69
2023-08-30T19:50:22.201Z,24.59
2023-08-30T19:52:52.243Z,24.54
2023-08-30T19:55:22.596Z,24.51
2023-08-30T19:57:54.528Z,24.50
2023-08-30T20:00:24.123Z,24.49
2023-08-30T20:02:54.017Z,24.42
2023-08-30T20:05:24.559Z,24.34
2023-08-30T20:07:54.759Z,24.32
2023-08-30T20:10:23.983Z,24.33
2023-08-30T20:12:53.885Z,24.28
2023-08-30T20:15:26.070Z,24.21
2023-08-30T20:17:55.815Z,24.19
2023-08-30T20:20:25.510Z,24.20
2023-08-30T20:22:56.191Z,24.20
2023-08-30T20:25:26.211Z,24.20
2023-08-30T20:27:55.761Z,24.18
2023-08-30T20:30:24.493Z,24.21
2023-08-30T20:32:55.273Z,24.22
2023-08-30T20:35:25.753Z,24.21
2023-08-30T20:37:57.053Z,24.17
2023-08-30T20:40:26.619Z,24.14
2023-08-30T20:42:56.356Z,24.11
2023-08-30T20:45:25.051Z,24.04
2023-08-30T20:47:54.710Z,23.98
2023-08-30T20:50:25.664Z,23.93
2023-08-30T20:52:54.751Z,23.91
2023-08-30T20:55:37.929Z,23.88
2023-08-30T20:57:56.490Z,23.85
2023-08-30T21:00:26.412Z,23.84
2023-08-30T21:02:56.771Z,23.80
2023-08-30T21:05:26.637Z,23.80
2023-08-30T21:07:56.140Z,23.82
2023-08-30T21:10:26.416Z,23.85
2023-08-30T21:15:27.019Z,23.89
2023-08-30T21:17:57.932Z,23.92
2023-08-30T21:20:26.532Z,23.98
2023-08-30T21:22:56.218Z,24.05
2023-08-30T21:25:26.927Z,24.13
2023-08-30T21:27:55.593Z,24.20
2023-08-30T21:30:25.195Z,24.22
2023-08-30T21:32:54.136Z,24.23
2023-08-30T21:35:24.348Z,24.26
2023-08-30T21:37:53.679Z,24.29
2023-08-30T21:40:24.748Z,24.32
2023-08-30T21:42:54.350Z,24.36
2023-08-30T21:45:23.779Z,24.38
2023-08-30T21:47:54.428Z,24.42
2023-08-30T21:50:24.483Z,24.45
2023-08-30T21:52:54.298Z,24.48
2023-08-30T21:55:25.073Z,24.52
2023-08-30T21:57:53.991Z,24.53
2023-08-30T22:00:23.119Z,24.55
2023-08-30T22:02:52.958Z,24.55
2023-08-30T22:05:24.510Z,24.55
2023-08-30T22:07:54.311Z,24.54
2023-08-30T22:10:25.968Z,24.53
2023-08-30T22:12:55.959Z,24.49
2023-08-30T22:15:28.162Z,24.46
2023-08-30T22:17:58.306Z,24.46
2023-08-30T22:20:27.889Z,24.44
2023-08-30T22:22:58.047Z,24.45
2023-08-30T22:25:27.958Z,24.41
2023-08-30T22:27:57.601Z,24.40
2023-08-30T22:30:27.387Z,24.37
2023-08-30T22:32:57.332Z,24.33
2023-08-30T22:35:27.742Z,24.32
2023-08-30T22:37:58.272Z,24.30
2023-08-30T22:40:28.332Z,24.27
2023-08-30T22:42:58.634Z,24.25
2023-08-30T22:45:29.653Z,24.24
2023-08-30T22:48:00.259Z,24.22
2023-08-30T22:50:29.639Z,24.22
2023-08-30T22:52:59.220Z,24.18
2023-08-30T22:55:28.290Z,24.14
2023-08-30T22:57:57.284Z,24.10
2023-08-30T23:00:28.123Z,24.10
2023-08-30T23:02:57.186Z,24.09
2023-08-30T23:05:26.288Z,24.08
2023-08-30T23:07:55.827Z,24.02
2023-08-30T23:10:26.858Z,23.96
2023-08-30T23:12:56.536Z,23.90
2023-08-30T23:15:26.406Z,23.85
2023-08-30T23:17:57.212Z,23.76
2023-08-30T23:20:27.519Z,23.69
2023-08-30T23:22:56.626Z,23.68
2023-08-30T23:25:26.121Z,23.67
2023-08-30T23:27:58.236Z,23.67
2023-08-30T23:30:27.214Z,23.60
2023-08-30T23:32:56.603Z,23.53
2023-08-30T23:35:27.428Z,23.43
2023-08-30T23:37:56.423Z,23.37
2023-08-30T23:40:26.018Z,23.30
2023-08-30T23:42:55.101Z,23.23
2023-08-30T23:45:26.156Z,23.19
2023-08-30T23:47:55.412Z,23.14
2023-08-30T23:50:25.311Z,23.04
2023-08-30T23:52:54.924Z,22.98
2023-08-30T23:55:23.646Z,22.94
2023-08-30T23:57:51.962Z,22.93
